Flight Track Log - Related Links

Times and Time Zones

All times are in EDT time to prevent confusion due to time zone crossing. See the RPA3242 flight status page for this flight to view local times or setup timezone preferences in your user account.

Time Position Orientation Groundspeed Altitude Reporting Facility
EDT Latitude Longitude Course Direction KTS MPH feet Rate Location/Type
Thu 08:22:21 PM 42.2314 -83.3342 90° East 131 151 1,500  Level Cleveland Center
Thu 08:23:28 PM 42.2719 -83.2967 34° Northeast 185 213 3,000 1,872 Climbing Cleveland Center
Thu 08:24:00 PM 42.2167 -82.9764 90° East  Level FlightAware Approximate
Thu 08:24:42 PM 42.3275 -83.2317 41° Northeast 248 285 5,900  Level Cleveland Center
Thu 08:25:00 PM 42.2167 -82.8502 90° East  Level FlightAware Approximate
Thu 08:25:31 PM 42.3272 -83.1586 90° East 275 316 8,100  Level Cleveland Center
Thu 08:25:47 PM 42.3217 -83.1247 102° East 279 321 8,900 1,500 Climbing Cleveland Center
Thu 08:26:00 PM 42.2167 -82.7240 90° East  Level FlightAware Approximate
Thu 08:26:47 PM 42.3053 -83.0089 101° East 331 381 10,000  Level Cleveland Center
Thu 08:27:00 PM 42.2167 -82.5978 90° East  Level FlightAware Approximate
Thu 08:27:47 PM 42.2869 -82.8847 101° East 347 399 10,900  Level Cleveland Center
Thu 08:28:47 PM 42.2686 -82.7633 101° East 342 394 13,400 2,350 Climbing Cleveland Center
Thu 08:29:47 PM 42.2503 -82.6308 101° East 342 394 15,600 2,300 Climbing Cleveland Center
Thu 08:30:47 PM 42.2297 -82.4900 101° East 355 409 18,000 2,250 Climbing Cleveland Center
Thu 08:31:47 PM 42.2172 -82.3494 97° East 371 427 20,100 1,850 Climbing Cleveland Center
Thu 08:32:47 PM 42.2050 -82.2033 96° East 378 435 21,700 1,600 Climbing Cleveland Center
Thu 08:33:47 PM 42.1964 -82.0544 94° East 391 450 23,300 1,400 Climbing Cleveland Center
Thu 08:34:47 PM 42.1711 -81.9222 104° East 397 457 24,500 1,350 Climbing Cleveland Center
Thu 08:35:47 PM 42.0908 -81.8200 137° Southeast 371 427 26,000 1,400 Climbing Cleveland Center
Thu 08:36:47 PM 42.0044 -81.7233 140° Southeast 389 448 27,300 1,250 Climbing Cleveland Center
Thu 08:37:47 PM 41.9219 -81.6242 138° Southeast 402 463 28,500 1,100 Climbing Cleveland Center
Thu 08:38:47 PM 41.8311 -81.5250 141° Southeast 407 468 29,500 1,150 Climbing Cleveland Center
Thu 08:39:47 PM 41.7361 -81.4153 139° Southeast 414 476 30,800 750 Climbing Cleveland Center
Thu 08:40:47 PM 41.6511 -81.3167 139° Southeast 414 476 31,000 100 Climbing Cleveland Center
Thu 08:41:47 PM 41.5622 -81.2186 140° Southeast 414 476 31,000  Level Cleveland Center
Thu 08:42:47 PM 41.4772 -81.1097 136° Southeast 414 476 31,000  Level Cleveland Center
Thu 08:43:47 PM 41.3983 -81.0011 134° Southeast 407 468 31,000  Level Cleveland Center
Thu 08:44:47 PM 41.3217 -80.8928 133° Southeast 401 461 31,000  Level Cleveland Center
Thu 08:45:47 PM 41.2447 -80.7875 134° Southeast 401 461 31,000  Level Cleveland Center
Thu 08:46:47 PM 41.1742 -80.6881 133° Southeast 401 461 31,000  Level Cleveland Center
Thu 08:47:47 PM 41.0928 -80.5719 133° Southeast 396 456 31,000  Level Cleveland Center
Thu 08:48:47 PM 41.0197 -80.4758 135° Southeast 384 442 31,000  Level Cleveland Center
Thu 08:49:47 PM 40.9508 -80.3797 133° Southeast 373 429 31,000  Level Cleveland Center
Thu 08:50:47 PM 40.8778 -80.2811 134° Southeast 373 429 31,000  Level Cleveland Center
Thu 08:51:47 PM 40.8192 -80.2072 136° Southeast 347 399 31,000  Level Cleveland Center
Thu 08:52:47 PM 40.8061 -80.0922 98° East 313 360 31,000  Level Cleveland Center
Thu 08:53:47 PM 40.9167 -80.0667 10° North 207 238 31,000  Level Cleveland Center
Thu 08:54:47 PM 40.9817 -80.1706 310° West 213 245 31,000  Level Cleveland Center
Thu 08:55:47 PM 41.0528 -80.2664 315° West 289 333 31,000  Level Cleveland Center
Thu 08:56:47 PM 41.1156 -80.3681 309° West 333 383 31,000  Level Cleveland Center
Thu 08:57:47 PM 41.0864 -80.4619 248° West 262 302 31,000  Level Cleveland Center
Thu 08:58:47 PM 41.0219 -80.5253 217° Southwest 236 272 31,000  Level Cleveland Center
Thu 08:59:47 PM 40.9636 -80.5997 224° Southwest 269 310 31,000  Level Cleveland Center
Thu 09:00:47 PM 40.8886 -80.5750 166° South 251 289 31,000  Level Cleveland Center
Thu 09:01:47 PM 40.8550 -80.4650 112° Southeast 261 300 31,000  Level Cleveland Center
Thu 09:02:47 PM 40.8133 -80.3389 114° Southeast 308 354 31,000  Level Cleveland Center
Thu 09:03:47 PM 40.7775 -80.2239 112° Southeast 328 377 31,000  Level Cleveland Center
Thu 09:04:47 PM 40.7394 -80.1064 113° Southeast 340 391 31,000  Level Cleveland Center
Thu 09:05:47 PM 40.7036 -79.9889 112° Southeast 340 391 31,000  Level Cleveland Center
Thu 09:06:47 PM 40.6653 -79.8742 114° Southeast 340 391 31,000  Level Cleveland Center
Thu 09:07:47 PM 40.6231 -79.7681 118° Southeast 335 386 31,000  Level Cleveland Center
Thu 09:08:47 PM 40.5556 -79.6922 140° Southeast 324 373 31,000  Level Cleveland Center
Thu 09:09:47 PM 40.4906 -79.6194 140° Southeast 307 353 31,000  Level Cleveland Center
Thu 09:10:47 PM 40.4253 -79.5439 139° Southeast 312 359 31,000  Level Cleveland Center
Thu 09:11:47 PM 40.3597 -79.4686 139° Southeast 312 359 31,000  Level Cleveland Center
Thu 09:12:48 PM 40.2922 -79.3908 139° Southeast 312 359 31,000  Level Cleveland Center
Thu 09:13:47 PM 40.2411 -79.2911 124° Southeast 312 359 31,000  Level Cleveland Center
Thu 09:14:47 PM 40.2478 -79.1522 86° East 331 381 31,000  Level Cleveland Center
Thu 09:15:47 PM 40.2589 -79.0269 83° East 353 406 31,000  Level Cleveland Center
Thu 09:16:47 PM 40.2650 -78.8881 87° East 370 426 31,000 -400 Level Cleveland Center
Thu 09:17:47 PM 40.2733 -78.7436 86° East 384 442 30,200 -900 Descending Cleveland Center
Thu 09:18:47 PM 40.2811 -78.5936 86° East 395 455 29,200 -1,000 Descending Cleveland Center
Thu 09:21:17 PM 40.3011 -78.1961 86° East 417 480 26,700 -1,038 Descending New York Center
Thu 09:22:15 PM 40.3086 -78.0389 86° East 423 487 25,600 -857 Descending New York Center
Thu 09:23:16 PM 40.3117 -77.8867 88° East 423 487 25,000 -793 Descending New York Center
Thu 09:24:16 PM 40.3103 -77.7369 91° East 418 481 24,000 -1,438 Descending New York Center
Thu 09:25:17 PM 40.3106 -77.5897 90° East 418 481 22,100 -1,488 Descending New York Center
Thu 09:26:17 PM 40.3061 -77.4478 92° East 401 461 21,000 -559 Descending New York Center
Thu 09:27:15 PM 40.3056 -77.3089 90° East 390 449 21,000  Level New York Center
Thu 09:28:16 PM 40.3008 -77.1669 92° East 385 443 21,000  Level New York Center
Thu 09:29:17 PM 40.2914 -77.0300 95° East 385 443 21,000  Level New York Center
Thu 09:30:15 PM 40.2586 -76.8989 108° East 379 436 21,000  Level New York Center
Thu 09:31:16 PM 40.2300 -76.7686 106° East 379 436 21,000 -50 Level New York Center
Thu 09:32:16 PM 40.1989 -76.6408 108° East 379 436 20,900 -1,041 Descending New York Center
Thu 09:33:17 PM 40.1722 -76.5028 104° East 379 436 18,900 -1,835 Descending New York Center
Thu 09:34:17 PM 40.1406 -76.3808 109° East 374 430 17,200 -1,866 Descending New York Center
Thu 09:35:16 PM 40.1278 -76.2519 97° East 359 413 15,200 -1,916 Descending New York Center
Thu 09:36:16 PM 40.1147 -76.1289 98° East 349 402 13,400 -1,736 Descending New York Center
Thu 09:37:17 PM 40.1053 -76.0169 96° East 354 407 11,700 -1,714 Descending New York Center
Thu 09:38:15 PM 40.0942 -75.8886 96° East 337 388 10,000 -1,650 Descending New York Center
Thu 09:39:17 PM 40.0839 -75.7900 98° East 310 357 8,400 -1,180 Descending New York Center
Thu 09:40:17 PM 40.0761 -75.6756 95° East 291 335 7,600 -1,169 Descending New York Center
Thu 09:41:15 PM 40.0736 -75.5831 92° East 291 335 6,100 -807 Descending New York Center
Thu 09:42:16 PM 40.0678 -75.4689 94° East 291 335 6,000 -50 Descending New York Center
Thu 09:43:16 PM 40.0611 -75.3761 95° East 291 335 6,000  Level New York Center
Thu 09:44:17 PM 40.0567 -75.2728 93° East 291 335 6,000  Level New York Center
Thu 09:44:51 PM 40.0500 -75.2000 97° East 289 333 6,000 -191 Level Philadelphia TRACON
Thu 09:45:51 PM 40.0500 -75.0833 90° East 285 328 5,700 -500 Descending Philadelphia TRACON
Thu 09:46:51 PM 40.0167 -75.0000 118° Southeast 260 299 5,000 -316 Descending Philadelphia TRACON
Thu 09:47:45 PM 39.9833 -74.9667 143° Southeast 186 214 5,100 -650 Climbing Philadelphia TRACON
Thu 09:48:51 PM 39.9333 -75.0000 207° Southwest 182 209 3,700 -1,134 Descending Philadelphia TRACON
Thu 09:49:52 PM 39.9167 -75.0500 247° West 168 193 2,700 -942 Descending Philadelphia TRACON
Thu 09:50:52 PM 39.9000 -75.1000 247° West 164 189 1,800 -895 Descending Philadelphia TRACON
Thu 09:51:46 PM 39.8833 -75.1667 252° West 162 186 1,000 -889 Descending Philadelphia TRACON

Login

Don't have an account? Register now (free) for customized features, flight alerts, and more!